createdAt,value
2023-02-26T00:03:25.802Z,0
2023-02-26T00:08:48.237Z,0
2023-02-26T00:14:11.104Z,0
2023-02-26T00:19:37.478Z,0
2023-02-26T00:24:59.593Z,0
2023-02-26T00:30:38.853Z,0
2023-02-26T00:36:02.014Z,0
2023-02-26T00:41:32.134Z,0
2023-02-26T00:46:54.993Z,0
2023-02-26T00:52:17.591Z,0
2023-02-26T00:57:40.684Z,0
2023-02-26T01:03:03.917Z,0
2023-02-26T01:08:26.716Z,0
2023-02-26T01:13:49.480Z,0
2023-02-26T01:19:12.446Z,0
2023-02-26T01:24:35.885Z,0
2023-02-26T13:34:01.984Z,2057.2
2023-02-26T13:39:24.422Z,2102.5
2023-02-26T13:44:48.594Z,2238.4
2023-02-26T13:50:19.430Z,1807.5
2023-02-26T13:55:40.184Z,2119
2023-02-26T14:01:07.122Z,1967.7
2023-02-26T14:06:29.098Z,2071.7
2023-02-26T14:11:54.427Z,1939.3
2023-02-26T14:17:16.086Z,1733
2023-02-26T14:22:40.764Z,1698.5
2023-02-26T14:28:03.889Z,1484.1
2023-02-26T14:33:25.802Z,1448.7
2023-02-26T14:38:48.907Z,1447.3
2023-02-26T14:44:12.019Z,1092.8
2023-02-26T14:54:59.299Z,264.2
2023-02-26T15:00:21.605Z,320
2023-02-26T15:05:44.195Z,420.9
2023-02-26T15:16:35.157Z,203.8
2023-02-26T15:21:57.853Z,167.8
2023-02-26T15:27:26.009Z,124.8
2023-02-26T15:32:49.561Z,110.3
2023-02-26T15:38:15.004Z,134.4
2023-02-26T15:43:40.500Z,141.5
2023-02-26T15:49:03.544Z,141.9
2023-02-26T15:54:26.094Z,111.8
2023-02-26T15:59:49.004Z,123.5
2023-02-26T16:05:32.008Z,131.8
2023-02-26T16:10:54.785Z,82.9
2023-02-26T16:16:18.144Z,67.2
2023-02-26T16:21:40.962Z,66.4
2023-02-26T16:27:11.226Z,54.6
2023-02-26T16:32:34.874Z,49.1
2023-02-26T16:38:00.260Z,50.3
2023-02-26T16:43:23.393Z,48.6
2023-02-26T16:48:46.620Z,48.7
2023-02-26T16:54:09.578Z,44.3
2023-02-26T16:59:32.571Z,42
2023-02-26T17:04:55.291Z,37.3
2023-02-26T17:10:18.026Z,30.1
2023-02-26T17:15:40.830Z,20
2023-02-26T17:21:03.907Z,10
2023-02-26T17:32:08.504Z,0
2023-02-26T17:37:31.558Z,0
2023-02-26T17:42:54.123Z,0
2023-02-26T17:48:16.738Z,0
2023-02-26T17:53:42.424Z,0
2023-02-26T17:59:05.158Z,0
2023-02-26T18:04:30.796Z,0
2023-02-26T18:09:53.981Z,0
2023-02-26T18:15:31.663Z,0
2023-02-26T18:20:57.353Z,0
2023-02-26T18:26:20.189Z,0
2023-02-26T18:31:43.826Z,0
2023-02-26T18:37:06.648Z,0
2023-02-26T18:42:41.010Z,0
2023-02-26T18:48:03.735Z,0
2023-02-26T18:53:26.150Z,0
2023-02-26T18:58:49.003Z,0
2023-02-26T19:04:11.923Z,0
2023-02-26T19:09:34.689Z,0
2023-02-26T19:14:57.502Z,0
2023-02-26T19:20:20.621Z,0
2023-02-26T19:26:24.373Z,0
2023-02-26T19:31:48.346Z,0
2023-02-26T19:37:11.320Z,0
2023-02-26T19:48:00.107Z,0
2023-02-26T19:53:23.752Z,0
2023-02-26T19:58:46.276Z,0
2023-02-26T20:09:34.872Z,0
2023-02-26T20:14:58.044Z,0
2023-02-26T20:20:20.796Z,0
2023-02-26T20:25:43.294Z,0
2023-02-26T20:31:07.434Z,0
2023-02-26T20:36:32.965Z,0
2023-02-26T20:41:55.626Z,0
2023-02-26T20:47:18.449Z,0
2023-02-26T20:52:41.402Z,0
2023-02-26T20:58:04.265Z,0
2023-02-26T21:03:27.413Z,0
2023-02-26T21:08:50.217Z,0
2023-02-26T21:14:13.379Z,0
2023-02-26T21:19:43.909Z,0
2023-02-26T21:25:06.830Z,0
2023-02-26T21:30:30.194Z,0
2023-02-26T21:35:53.026Z,0
2023-02-26T21:41:16.005Z,0
2023-02-26T21:46:39.164Z,0
2023-02-26T21:52:01.644Z,0
2023-02-26T21:57:24.508Z,0
2023-02-26T22:02:57.278Z,0
2023-02-26T22:08:20.343Z,0
2023-02-26T22:13:43.317Z,0
2023-02-26T22:19:06.116Z,0
2023-02-26T22:24:29.253Z,0
2023-02-26T22:29:54.430Z,0
2023-02-26T22:35:17.428Z,0
2023-02-26T22:40:40.165Z,0
2023-02-26T22:46:03.325Z,0
2023-02-26T22:51:27.306Z,0
2023-02-26T23:02:16.400Z,0
2023-02-26T23:07:39.095Z,0
2023-02-26T23:13:04.731Z,0
2023-02-26T23:18:27.551Z,0
2023-02-26T23:23:52.802Z,0
2023-02-26T23:29:15.851Z,0
2023-02-26T23:34:45.760Z,0
2023-02-26T23:40:15.261Z,0
2023-02-26T23:45:37.849Z,0
2023-02-26T23:51:00.730Z,0
2023-02-26T23:56:23.285Z,0
